Terminal Aerodrome Forecast
Issued by NWS Cleveland, OH

Home | Current Version | Previous Version | Graphics & Text | Print | Product List | Glossary On
Versions: 1 2 3 4 5 6 7 8 9 10 11 12 13 14 15
000
FTUS41 KCLE 171100
TAFYNG
TAF
KYNG 171120Z 1712/1812 VRB02KT P6SM SCT045
      TEMPO 1712/1714 5SM BR BKN045
     FM171400 22006KT P6SM SCT045
     FM172000 26006KT P6SM SCT250
     FM180100 VRB03KT P6SM SKC
     FM180900 VRB03KT 4SM BR SKC=

USA.gov is the U.S. government's official web portal to all federal, state and local government web resources and services.